createdAt,value
2017-07-11T00:02:09.460Z,5.73
2017-07-11T00:04:36.116Z,4.70
2017-07-11T00:07:02.774Z,10.17
2017-07-11T00:09:29.432Z,7.70
2017-07-11T00:11:56.112Z,5.90
2017-07-11T00:14:22.777Z,5.00
2017-07-11T00:16:49.416Z,6.00
2017-07-11T00:19:16.108Z,4.77
2017-07-11T00:21:42.748Z,6.87
2017-07-11T00:24:09.384Z,5.27
2017-07-11T00:26:36.080Z,6.37
2017-07-11T00:29:02.733Z,6.90
2017-07-11T00:31:29.375Z,5.00
2017-07-11T00:33:56.020Z,7.47
2017-07-11T00:36:22.669Z,7.20
2017-07-11T00:38:49.305Z,8.23
2017-07-11T00:41:15.991Z,8.03
2017-07-11T00:43:42.641Z,6.13
2017-07-11T00:46:09.277Z,7.37
2017-07-11T00:48:35.952Z,9.27
2017-07-11T00:51:02.604Z,6.43
2017-07-11T00:53:29.250Z,8.53
2017-07-11T00:55:55.928Z,11.70
2017-07-11T00:58:22.583Z,9.37
2017-07-11T01:00:49.242Z,9.00
2017-07-11T01:03:15.944Z,11.57
2017-07-11T01:05:42.583Z,6.90
2017-07-11T01:08:09.216Z,6.37
2017-07-11T01:10:35.923Z,9.63
2017-07-11T01:13:02.565Z,9.40
2017-07-11T01:15:29.222Z,5.17
2017-07-11T01:17:55.936Z,7.43
2017-07-11T01:20:22.591Z,6.17
2017-07-11T01:22:49.232Z,8.97
2017-07-11T01:25:15.906Z,8.00
2017-07-11T01:27:42.566Z,5.13
2017-07-11T01:30:09.226Z,7.43
2017-07-11T01:32:35.941Z,6.43
2017-07-11T01:35:02.575Z,6.93
2017-07-11T01:37:29.230Z,4.90
2017-07-11T01:39:55.911Z,9.83
2017-07-11T01:42:22.582Z,6.87
2017-07-11T01:44:49.228Z,5.57
2017-07-11T01:47:15.926Z,7.33
2017-07-11T01:49:42.584Z,4.67
2017-07-11T01:52:09.221Z,5.77
2017-07-11T01:54:35.892Z,9.10
2017-07-11T01:57:02.540Z,7.80
2017-07-11T01:59:29.194Z,5.97
2017-07-11T02:01:55.896Z,11.70
2017-07-11T02:04:22.538Z,4.43
2017-07-11T02:06:49.175Z,10.73
2017-07-11T02:09:15.833Z,6.27
2017-07-11T02:11:42.487Z,9.17
2017-07-11T02:14:09.151Z,5.27
2017-07-11T02:16:35.808Z,8.83
2017-07-11T02:19:02.448Z,8.20
2017-07-11T02:21:29.106Z,12.70
2017-07-11T02:23:55.740Z,8.20
2017-07-11T02:26:22.389Z,8.43
2017-07-11T02:28:49.130Z,7.50
2017-07-11T02:31:15.782Z,9.80
2017-07-11T02:33:42.450Z,8.03
2017-07-11T02:36:09.139Z,4.63
2017-07-11T02:38:35.777Z,8.77
2017-07-11T02:41:02.422Z,10.30
2017-07-11T02:43:29.088Z,9.57
2017-07-11T02:45:55.722Z,7.20
2017-07-11T02:48:22.390Z,10.00
2017-07-11T02:50:49.084Z,8.70
2017-07-11T02:53:15.726Z,13.93
2017-07-11T02:55:42.444Z,8.27
2017-07-11T02:58:09.097Z,9.90
2017-07-11T03:00:35.731Z,6.20
2017-07-11T03:03:02.371Z,14.87
2017-07-11T03:05:29.019Z,8.40
2017-07-11T03:07:55.662Z,12.07
2017-07-11T03:10:22.315Z,12.20
2017-07-11T03:12:48.990Z,9.93
2017-07-11T03:15:15.628Z,9.17
2017-07-11T03:17:42.264Z,8.23
2017-07-11T03:20:08.918Z,6.10
2017-07-11T03:22:35.570Z,8.27
2017-07-11T03:25:02.220Z,8.00
2017-07-11T03:27:28.885Z,9.57
2017-07-11T03:29:55.547Z,5.20
2017-07-11T03:32:22.180Z,8.40
2017-07-11T03:34:48.890Z,11.53
2017-07-11T03:37:15.559Z,10.83
2017-07-11T03:39:42.215Z,8.73
2017-07-11T03:42:08.896Z,8.77
2017-07-11T03:44:35.541Z,10.10
2017-07-11T03:47:02.275Z,10.30
2017-07-11T03:49:28.933Z,9.03
2017-07-11T03:51:55.568Z,18.97
2017-07-11T03:54:22.236Z,10.37
2017-07-11T03:56:48.897Z,9.60
2017-07-11T03:59:15.532Z,6.43
2017-07-11T04:01:42.188Z,12.40
2017-07-11T04:04:08.867Z,9.77
2017-07-11T04:06:35.500Z,8.90
2017-07-11T04:09:02.136Z,9.00
2017-07-11T04:11:28.944Z,6.80
2017-07-11T04:13:55.594Z,13.57
2017-07-11T04:16:22.274Z,9.07
2017-07-11T04:18:48.932Z,9.37
2017-07-11T04:21:15.573Z,15.20
2017-07-11T04:23:42.235Z,13.50
2017-07-11T04:26:08.925Z,11.87
2017-07-11T04:28:35.576Z,13.57
2017-07-11T04:31:02.230Z,11.70
2017-07-11T04:33:28.955Z,8.93
2017-07-11T04:35:55.645Z,8.77
2017-07-11T04:38:22.300Z,9.13
2017-07-11T04:40:48.947Z,12.73
2017-07-11T04:43:17.568Z,8.90
2017-07-11T04:45:44.231Z,13.03
2017-07-11T04:48:10.872Z,10.80
2017-07-11T04:50:37.568Z,8.80
2017-07-11T04:53:04.220Z,11.97
2017-07-11T04:55:30.881Z,10.30
2017-07-11T04:57:57.545Z,17.10
2017-07-11T05:00:24.180Z,8.70
2017-07-11T05:02:50.839Z,7.50
2017-07-11T05:05:17.560Z,13.37
2017-07-11T05:07:44.198Z,8.40
2017-07-11T05:10:10.872Z,7.23
2017-07-11T05:12:37.557Z,7.17
2017-07-11T05:15:04.215Z,14.33
2017-07-11T05:17:30.880Z,10.50
2017-07-11T05:19:57.559Z,9.13
2017-07-11T05:22:24.204Z,8.37
2017-07-11T05:24:50.837Z,9.83
2017-07-11T05:27:17.508Z,9.77
2017-07-11T05:29:44.171Z,10.60
2017-07-11T05:32:10.836Z,15.73
2017-07-11T05:34:37.508Z,8.30
2017-07-11T05:37:04.149Z,13.10
2017-07-11T05:39:30.790Z,11.93
2017-07-11T05:41:57.463Z,8.40
2017-07-11T05:44:24.108Z,9.53
2017-07-11T05:46:50.757Z,7.50
2017-07-11T05:49:17.436Z,9.00
2017-07-11T05:51:44.082Z,13.13
2017-07-11T05:54:10.734Z,14.10
2017-07-11T05:56:37.451Z,14.77
2017-07-11T05:59:04.199Z,14.03
2017-07-11T06:01:30.851Z,11.40
2017-07-11T06:03:57.486Z,9.67
2017-07-11T06:06:24.154Z,7.87
2017-07-11T06:08:50.822Z,13.03
2017-07-11T06:11:17.452Z,8.50
2017-07-11T06:13:44.157Z,7.80
2017-07-11T06:16:10.787Z,8.20
2017-07-11T06:18:37.460Z,11.37
2017-07-11T06:21:04.171Z,7.83
2017-07-11T06:23:30.826Z,10.97
2017-07-11T06:25:57.487Z,5.73
2017-07-11T06:28:24.148Z,8.43
2017-07-11T06:30:50.798Z,8.50
2017-07-11T06:33:17.456Z,8.47
2017-07-11T06:35:44.156Z,5.73
2017-07-11T06:38:10.796Z,7.27
2017-07-11T06:40:37.451Z,7.43
2017-07-11T06:43:04.172Z,6.07
2017-07-11T06:45:30.828Z,5.93
2017-07-11T06:47:57.499Z,5.57
2017-07-11T06:50:24.195Z,6.50
2017-07-11T06:52:50.824Z,5.70
2017-07-11T06:55:17.497Z,6.07
2017-07-11T06:57:44.188Z,6.50
2017-07-11T07:00:10.825Z,7.03
2017-07-11T07:02:37.524Z,7.30
2017-07-11T07:05:04.162Z,6.63
2017-07-11T07:07:30.800Z,6.77
2017-07-11T07:09:57.467Z,5.13
2017-07-11T07:12:24.106Z,6.80
2017-07-11T07:14:50.783Z,6.00
2017-07-11T07:17:17.463Z,10.13
2017-07-11T07:19:44.119Z,5.37
2017-07-11T07:22:10.775Z,8.63
2017-07-11T07:24:37.443Z,7.23
2017-07-11T07:27:04.093Z,6.30
2017-07-11T07:29:30.737Z,5.53
2017-07-11T07:31:57.443Z,7.93
2017-07-11T07:34:24.107Z,4.70
2017-07-11T07:36:50.754Z,6.47
2017-07-11T07:39:17.442Z,6.27
2017-07-11T07:41:44.146Z,9.57
2017-07-11T07:44:10.810Z,7.60
2017-07-11T07:46:37.472Z,6.23
2017-07-11T07:49:04.119Z,4.67
2017-07-11T07:51:30.779Z,6.27
2017-07-11T07:53:57.472Z,7.30
2017-07-11T07:56:24.144Z,9.17
2017-07-11T07:58:50.809Z,7.33
2017-07-11T08:01:17.536Z,6.97
2017-07-11T08:03:44.201Z,6.20
2017-07-11T08:06:10.854Z,5.17
2017-07-11T08:08:37.532Z,5.23
2017-07-11T08:11:04.255Z,4.70
2017-07-11T08:13:30.853Z,5.53
2017-07-11T08:15:57.508Z,7.03
2017-07-11T08:18:24.159Z,7.17
2017-07-11T08:20:50.815Z,4.53
2017-07-11T08:23:17.503Z,6.50
2017-07-11T08:25:44.154Z,4.10
2017-07-11T08:28:10.792Z,4.30
2017-07-11T08:30:37.475Z,4.33
2017-07-11T08:33:04.128Z,5.73
2017-07-11T08:35:30.820Z,6.03
2017-07-11T08:37:57.534Z,5.60
2017-07-11T08:40:24.197Z,4.23
2017-07-11T08:42:50.907Z,7.80
2017-07-11T08:45:17.575Z,7.37
2017-07-11T08:47:44.220Z,8.53
2017-07-11T08:50:10.881Z,4.47
2017-07-11T08:52:37.551Z,6.63
2017-07-11T08:55:04.205Z,3.43
2017-07-11T08:57:30.845Z,8.10
2017-07-11T08:59:57.534Z,5.07
2017-07-11T09:02:24.191Z,4.80
2017-07-11T09:04:50.842Z,4.20
2017-07-11T09:07:17.558Z,4.07
2017-07-11T09:09:44.204Z,4.50
2017-07-11T09:12:10.871Z,6.23
2017-07-11T09:14:37.549Z,3.33
2017-07-11T09:17:04.188Z,3.97
2017-07-11T09:19:30.836Z,6.30
2017-07-11T09:21:57.539Z,4.77
2017-07-11T09:24:24.201Z,4.90
2017-07-11T09:26:50.844Z,3.57
2017-07-11T09:29:17.519Z,3.40
2017-07-11T09:31:44.164Z,3.67
2017-07-11T09:34:10.806Z,4.80
2017-07-11T09:36:37.506Z,12.73
2017-07-11T09:39:04.175Z,4.70
2017-07-11T09:41:30.834Z,4.50
2017-07-11T09:43:57.509Z,3.93
2017-07-11T09:46:24.170Z,3.67
2017-07-11T09:48:50.804Z,5.10
2017-07-11T09:51:17.467Z,4.10
2017-07-11T09:53:44.143Z,4.57
2017-07-11T09:56:10.801Z,2.70
2017-07-11T09:58:37.502Z,2.40
2017-07-11T10:01:04.180Z,2.90
2017-07-11T10:03:30.847Z,4.33
2017-07-11T10:05:57.521Z,7.63
2017-07-11T10:08:24.179Z,3.30
2017-07-11T10:10:50.825Z,3.40
2017-07-11T10:13:17.503Z,2.90
2017-07-11T10:15:44.159Z,3.30
2017-07-11T10:18:10.807Z,2.97
2017-07-11T10:20:37.552Z,4.40
2017-07-11T10:23:04.207Z,3.53
2017-07-11T10:25:30.861Z,6.63
2017-07-11T10:27:57.540Z,2.63
2017-07-11T10:30:24.191Z,5.80
2017-07-11T10:32:50.828Z,5.37
2017-07-11T10:35:17.507Z,3.30
2017-07-11T10:37:44.147Z,3.23
2017-07-11T10:40:10.780Z,3.30
2017-07-11T10:42:37.439Z,7.37
2017-07-11T10:45:04.077Z,3.70
2017-07-11T10:47:30.720Z,5.90
2017-07-11T10:49:57.391Z,3.10
2017-07-11T10:52:24.046Z,3.20
2017-07-11T10:54:50.702Z,3.67
2017-07-11T10:57:17.398Z,3.33
2017-07-11T10:59:44.048Z,4.30
2017-07-11T11:02:10.696Z,3.37
2017-07-11T11:04:37.369Z,6.17
2017-07-11T11:07:04.029Z,2.73
2017-07-11T11:09:30.676Z,4.87
2017-07-11T11:11:57.352Z,4.70
2017-07-11T11:14:24.040Z,4.53
2017-07-11T11:16:50.695Z,4.53
2017-07-11T11:19:17.395Z,3.40
2017-07-11T11:21:44.041Z,3.30
2017-07-11T11:24:10.698Z,4.33
2017-07-11T11:26:37.384Z,3.23
2017-07-11T11:29:04.060Z,2.70
2017-07-11T11:31:30.692Z,2.63
2017-07-11T11:33:57.381Z,3.00
2017-07-11T11:36:24.050Z,4.20
2017-07-11T11:38:50.710Z,5.07
2017-07-11T11:41:17.378Z,3.10
2017-07-11T11:43:44.043Z,4.37
2017-07-11T11:46:10.697Z,7.17
2017-07-11T11:48:37.463Z,3.70
2017-07-11T11:51:04.114Z,3.97
2017-07-11T11:53:30.771Z,2.93
2017-07-11T11:55:57.434Z,5.00
2017-07-11T11:58:24.084Z,3.70
2017-07-11T12:00:50.715Z,3.90
2017-07-11T12:03:17.394Z,5.93
2017-07-11T12:05:44.054Z,2.97
2017-07-11T12:08:10.714Z,3.20
2017-07-11T12:10:37.408Z,3.00
2017-07-11T12:13:04.083Z,2.97
2017-07-11T12:15:30.721Z,4.30
2017-07-11T12:17:57.376Z,6.93
2017-07-11T12:20:24.036Z,5.37
2017-07-11T12:22:50.676Z,4.70
2017-07-11T12:25:17.346Z,3.83
2017-07-11T12:27:44.004Z,5.70
2017-07-11T12:30:10.662Z,3.80
2017-07-11T12:32:37.344Z,3.53
2017-07-11T12:35:03.994Z,6.17
2017-07-11T12:37:30.637Z,3.27
2017-07-11T12:39:57.303Z,3.30
2017-07-11T12:42:23.970Z,5.30
2017-07-11T12:44:50.672Z,3.37
2017-07-11T12:47:17.355Z,3.27
2017-07-11T12:49:44.010Z,2.80
2017-07-11T12:52:10.675Z,3.97
2017-07-11T12:54:37.371Z,3.80
2017-07-11T12:57:04.031Z,2.80
2017-07-11T12:59:30.672Z,2.83
2017-07-11T13:01:57.329Z,2.50
2017-07-11T13:04:30.517Z,4.77
2017-07-11T13:06:57.200Z,3.80
2017-07-11T13:09:23.842Z,2.30
2017-07-11T13:11:50.499Z,2.50
2017-07-11T13:14:17.175Z,5.17
2017-07-11T13:16:43.840Z,3.27
2017-07-11T13:19:10.499Z,3.50
2017-07-11T13:21:37.188Z,3.00
2017-07-11T13:24:03.845Z,2.50
2017-07-11T13:26:30.494Z,3.03
2017-07-11T13:28:57.165Z,3.83
2017-07-11T13:31:23.805Z,3.60
2017-07-11T13:33:50.447Z,2.33
2017-07-11T13:36:17.135Z,2.13
2017-07-11T13:38:43.780Z,5.23
2017-07-11T13:41:10.420Z,2.27
2017-07-11T13:43:37.096Z,2.83
2017-07-11T13:46:03.748Z,2.50
2017-07-11T13:48:30.383Z,5.30
2017-07-11T13:50:57.056Z,2.80
2017-07-11T13:53:23.698Z,2.73
2017-07-11T13:55:50.355Z,2.53
2017-07-11T13:58:17.008Z,2.00
2017-07-11T14:00:43.666Z,5.20
2017-07-11T14:03:10.320Z,2.30
2017-07-11T14:05:36.969Z,2.60
2017-07-11T14:08:03.604Z,2.67
2017-07-11T14:10:30.245Z,2.60
2017-07-11T14:12:56.936Z,4.17
2017-07-11T14:15:27.292Z,2.70
2017-07-11T14:17:53.958Z,5.20
2017-07-11T14:20:20.631Z,2.73
2017-07-11T14:22:47.290Z,3.43
2017-07-11T14:25:13.929Z,3.30
2017-07-11T14:27:40.607Z,3.07
2017-07-11T14:30:07.295Z,3.00
2017-07-11T14:32:33.957Z,3.03
2017-07-11T14:35:00.636Z,4.13
2017-07-11T14:37:27.288Z,3.23
2017-07-11T14:39:53.940Z,5.30
2017-07-11T14:42:20.620Z,3.10
2017-07-11T14:44:47.273Z,4.43
2017-07-11T14:47:13.928Z,3.23
2017-07-11T14:49:40.644Z,2.80
2017-07-11T14:52:07.284Z,3.80
2017-07-11T14:54:33.927Z,3.17
2017-07-11T14:57:00.639Z,2.70
2017-07-11T14:59:27.300Z,3.37
2017-07-11T15:01:53.958Z,3.50
2017-07-11T15:04:20.620Z,2.93
2017-07-11T15:06:47.295Z,3.13
2017-07-11T15:09:15.414Z,5.43
2017-07-11T15:11:44.239Z,3.63
2017-07-11T15:14:10.895Z,3.80
2017-07-11T15:16:37.564Z,4.00
2017-07-11T15:19:04.252Z,6.03
2017-07-11T15:21:30.912Z,3.03
2017-07-11T15:23:57.555Z,4.20
2017-07-11T15:26:24.237Z,3.80
2017-07-11T15:28:50.871Z,3.47
2017-07-11T15:31:17.509Z,4.60
2017-07-11T15:33:44.179Z,3.37
2017-07-11T15:36:10.820Z,2.90
2017-07-11T15:38:37.461Z,3.57
2017-07-11T15:41:04.137Z,3.90
2017-07-11T15:43:30.786Z,3.80
2017-07-11T15:45:57.443Z,3.90
2017-07-11T15:48:24.106Z,4.37
2017-07-11T15:50:50.755Z,3.43
2017-07-11T15:53:17.398Z,5.10
2017-07-11T15:55:44.082Z,4.43
2017-07-11T15:58:10.739Z,3.97
2017-07-11T16:00:38.218Z,5.30
2017-07-11T16:03:04.911Z,4.60
2017-07-11T16:05:31.551Z,4.10
2017-07-11T16:07:58.207Z,8.17
2017-07-11T16:10:31.360Z,3.90
2017-07-11T16:12:58.004Z,4.80
2017-07-11T16:15:24.651Z,4.30
2017-07-11T16:17:51.315Z,4.93
2017-07-11T16:20:17.950Z,5.30
2017-07-11T16:22:44.605Z,6.40
2017-07-11T16:25:11.269Z,4.07
2017-07-11T16:27:37.915Z,4.20
2017-07-11T16:30:04.566Z,4.07
2017-07-11T16:32:31.231Z,4.40
2017-07-11T16:34:57.887Z,4.30
2017-07-11T16:37:24.522Z,3.60
2017-07-11T16:39:51.232Z,4.53
2017-07-11T16:42:17.910Z,4.20
2017-07-11T16:44:44.548Z,6.40
2017-07-11T16:47:11.185Z,4.13
2017-07-11T16:49:37.871Z,5.27
2017-07-11T16:52:04.677Z,5.47
2017-07-11T16:54:31.343Z,4.77
2017-07-11T16:56:57.997Z,5.10
2017-07-11T16:59:24.656Z,6.23
2017-07-11T17:01:51.322Z,4.80
2017-07-11T17:04:17.975Z,5.60
2017-07-11T17:06:44.654Z,5.00
2017-07-11T17:09:11.344Z,4.63
2017-07-11T17:14:20.495Z,5.07
2017-07-11T17:16:47.180Z,5.40
2017-07-11T17:19:13.859Z,15.80
2017-07-11T17:21:40.496Z,4.53
2017-07-11T17:24:07.170Z,4.77
2017-07-11T17:26:33.826Z,4.87
2017-07-11T17:29:00.503Z,14.00
2017-07-11T17:31:27.199Z,4.87
2017-07-11T17:33:53.840Z,5.97
2017-07-11T17:36:20.496Z,4.27
2017-07-11T17:38:47.203Z,7.70
2017-07-11T17:41:13.856Z,7.23
2017-07-11T17:43:40.496Z,4.10
2017-07-11T17:46:07.147Z,5.23
2017-07-11T17:48:33.877Z,4.40
2017-07-11T17:51:00.570Z,4.30
2017-07-11T17:53:27.222Z,4.70
2017-07-11T17:55:53.956Z,14.20
2017-07-11T17:58:20.605Z,11.67
2017-07-11T18:00:47.246Z,4.40
2017-07-11T18:03:13.947Z,6.23
2017-07-11T18:05:40.616Z,4.70
2017-07-11T18:08:07.256Z,4.93
2017-07-11T18:10:33.918Z,4.50
2017-07-11T18:13:00.570Z,5.53
2017-07-11T18:15:27.229Z,6.00
2017-07-11T18:17:53.895Z,4.43
2017-07-11T18:20:20.529Z,5.53
2017-07-11T18:22:47.178Z,4.80
2017-07-11T18:25:13.873Z,4.60
2017-07-11T18:27:40.527Z,5.20
2017-07-11T18:30:07.180Z,7.53
2017-07-11T18:32:33.883Z,4.43
2017-07-11T18:35:00.531Z,5.13
2017-07-11T18:37:27.181Z,6.10
2017-07-11T18:39:53.869Z,5.13
2017-07-11T18:42:20.500Z,5.30
2017-07-11T18:44:47.140Z,5.03
2017-07-11T18:47:13.817Z,5.33
2017-07-11T18:49:40.524Z,8.07
2017-07-11T18:52:07.185Z,6.25
2017-07-11T18:54:34.007Z,6.70
2017-07-11T18:57:00.695Z,7.45
2017-07-11T18:59:27.392Z,8.13
2017-07-11T19:01:54.055Z,8.10
2017-07-11T19:04:20.716Z,9.17
2017-07-11T19:06:47.393Z,9.90
2017-07-11T19:09:14.038Z,10.17
2017-07-11T19:11:40.701Z,12.90
2017-07-11T19:14:07.403Z,16.37
2017-07-11T19:16:34.088Z,11.77
2017-07-11T19:19:00.748Z,13.00
2017-07-11T19:21:27.446Z,11.40
2017-07-11T19:23:54.152Z,13.60
2017-07-11T19:26:20.877Z,13.00
2017-07-11T19:28:47.559Z,17.57
2017-07-11T19:31:14.243Z,13.07
2017-07-11T19:33:40.913Z,15.60
2017-07-11T19:36:07.572Z,14.13
2017-07-11T19:38:34.261Z,15.40
2017-07-11T19:41:00.914Z,12.17
2017-07-11T19:43:27.591Z,17.10
2017-07-11T19:45:54.284Z,14.40
2017-07-11T19:48:20.941Z,11.50
2017-07-11T19:50:47.587Z,11.47
2017-07-11T19:53:14.281Z,11.67
2017-07-11T19:55:41.008Z,14.77
2017-07-11T19:58:07.933Z,15.43
2017-07-11T20:00:34.590Z,20.60
2017-07-11T20:03:01.377Z,21.47
2017-07-11T20:05:28.085Z,24.37
2017-07-11T20:07:54.737Z,23.63
2017-07-11T20:10:21.433Z,22.10
2017-07-11T20:12:48.097Z,13.47
2017-07-11T20:15:14.757Z,13.53
2017-07-11T20:17:41.442Z,19.90
2017-07-11T20:20:08.097Z,19.13
2017-07-11T20:22:34.743Z,25.90
2017-07-11T20:25:01.405Z,20.40
2017-07-11T20:27:28.059Z,15.17
2017-07-11T20:29:54.710Z,24.00
2017-07-11T20:32:21.414Z,24.13
2017-07-11T20:34:48.060Z,17.00
2017-07-11T20:37:14.721Z,19.67
2017-07-11T20:39:41.371Z,23.67
2017-07-11T20:42:08.011Z,19.90
2017-07-11T20:44:34.688Z,25.17
2017-07-11T20:47:01.340Z,26.03
2017-07-11T20:49:28.001Z,32.20
2017-07-11T20:51:54.694Z,29.20
2017-07-11T20:54:21.452Z,26.67
2017-07-11T20:56:48.130Z,27.37
2017-07-11T20:59:15.121Z,28.07
2017-07-11T21:01:42.314Z,29.00
2017-07-11T21:04:08.977Z,23.97
2017-07-11T21:06:35.692Z,19.73
2017-07-11T21:09:02.342Z,28.23
2017-07-11T21:11:29.015Z,21.90
2017-07-11T21:13:55.699Z,31.93
2017-07-11T21:16:22.369Z,27.67
2017-07-11T21:18:49.033Z,26.80
2017-07-11T21:21:15.819Z,26.37
2017-07-11T21:23:42.488Z,28.27
2017-07-11T21:26:09.152Z,29.00
2017-07-11T21:28:35.868Z,28.30
2017-07-11T21:31:02.555Z,32.77
2017-07-11T21:33:29.242Z,32.63
2017-07-11T21:35:55.898Z,34.67
2017-07-11T21:38:22.558Z,29.53
2017-07-11T21:40:49.368Z,36.60
2017-07-11T21:43:16.027Z,35.70
2017-07-11T21:45:42.700Z,43.20
2017-07-11T21:48:09.417Z,46.13
2017-07-11T21:50:37.126Z,35.97
2017-07-11T21:53:03.784Z,43.30
2017-07-11T21:55:30.484Z,37.90
2017-07-11T21:57:57.155Z,37.17
2017-07-11T22:00:25.044Z,41.50
2017-07-11T22:02:51.738Z,39.73
2017-07-11T22:05:18.496Z,35.37
2017-07-11T22:07:45.187Z,45.97
2017-07-11T22:10:11.865Z,55.60
2017-07-11T22:12:38.528Z,49.83
2017-07-11T22:15:05.190Z,41.87
2017-07-11T22:17:31.871Z,48.87
2017-07-11T22:19:58.521Z,38.77
2017-07-11T22:22:25.199Z,45.73
2017-07-11T22:24:51.871Z,35.17
2017-07-11T22:27:18.543Z,36.83
2017-07-11T22:29:45.199Z,37.80
2017-07-11T22:32:11.899Z,42.77
2017-07-11T22:34:38.570Z,38.23
2017-07-11T22:37:05.246Z,35.10
2017-07-11T22:39:31.969Z,38.80
2017-07-11T22:41:58.616Z,41.90
2017-07-11T22:44:25.263Z,39.57
2017-07-11T22:46:51.935Z,45.87
2017-07-11T22:49:18.588Z,44.10
2017-07-11T22:51:45.236Z,43.60
2017-07-11T22:54:11.900Z,49.10
2017-07-11T22:56:38.591Z,38.70
2017-07-11T22:59:05.264Z,26.60
2017-07-11T23:01:31.905Z,31.57
2017-07-11T23:03:58.606Z,35.97
2017-07-11T23:06:25.262Z,33.97
2017-07-11T23:08:51.923Z,33.60
2017-07-11T23:11:18.622Z,35.43
2017-07-11T23:13:45.298Z,35.47
2017-07-11T23:16:11.962Z,40.00
2017-07-11T23:18:38.605Z,44.95
2017-07-11T23:21:05.279Z,36.07
2017-07-11T23:23:31.982Z,32.73
2017-07-11T23:25:58.638Z,38.83
2017-07-11T23:28:25.320Z,34.43
2017-07-11T23:30:52.004Z,31.10
2017-07-11T23:33:18.700Z,33.23
2017-07-11T23:35:45.377Z,39.93
2017-07-11T23:38:12.060Z,43.47
2017-07-11T23:40:38.736Z,42.43
2017-07-11T23:43:05.401Z,44.40
2017-07-11T23:45:32.083Z,28.50
2017-07-11T23:47:58.746Z,38.30
2017-07-11T23:50:25.394Z,39.20
2017-07-11T23:52:52.095Z,54.87
2017-07-11T23:55:18.748Z,48.57
2017-07-11T23:57:45.403Z,27.97
